createdAt,value
2019-02-21T00:02:07.140Z,53.70
2019-02-21T00:04:34.821Z,53.70
2019-02-21T00:07:02.775Z,53.50
2019-02-21T00:09:30.583Z,54.00
2019-02-21T00:12:00.124Z,53.30
2019-02-21T00:14:28.064Z,53.70
2019-02-21T00:16:56.505Z,53.70
2019-02-21T00:19:24.258Z,53.40
2019-02-21T00:21:53.837Z,52.30
2019-02-21T00:24:23.573Z,52.50
2019-02-21T00:26:51.263Z,52.40
2019-02-21T00:29:18.904Z,53.40
2019-02-21T00:31:46.590Z,53.80
2019-02-21T00:34:16.129Z,53.60
2019-02-21T00:36:43.809Z,53.80
2019-02-21T00:39:11.472Z,53.20
2019-02-21T00:41:39.636Z,53.50
2019-02-21T00:44:09.202Z,53.60
2019-02-21T00:46:36.893Z,53.80
2019-02-21T00:49:04.557Z,54.10
2019-02-21T00:51:32.264Z,53.80
2019-02-21T00:54:01.813Z,54.20
2019-02-21T00:56:29.683Z,54.10
2019-02-21T00:58:57.346Z,54.20
2019-02-21T01:01:24.993Z,53.30
2019-02-21T01:03:52.728Z,53.30
2019-02-21T01:06:22.253Z,53.80
2019-02-21T01:08:50.035Z,54.20
2019-02-21T01:11:17.765Z,54.30
2019-02-21T01:13:45.436Z,53.90
2019-02-21T01:16:14.953Z,53.70
2019-02-21T01:18:42.729Z,53.30
2019-02-21T01:21:10.437Z,54.00
2019-02-21T01:23:38.091Z,54.30
2019-02-21T01:26:07.646Z,54.30
2019-02-21T01:28:35.301Z,54.70
2019-02-21T01:31:03.371Z,55.50
2019-02-21T01:33:31.174Z,56.00
2019-02-21T01:36:01.200Z,55.60
2019-02-21T01:38:28.827Z,56.20
2019-02-21T01:40:56.553Z,56.60
2019-02-21T01:43:26.201Z,56.80
2019-02-21T01:45:57.793Z,56.90
2019-02-21T01:48:25.821Z,56.40
2019-02-21T01:50:53.480Z,56.40
2019-02-21T01:53:21.139Z,56.40
2019-02-21T01:55:48.807Z,56.30
2019-02-21T01:58:18.552Z,56.20
2019-02-21T02:00:46.287Z,56.40
2019-02-21T02:03:14.044Z,56.30
2019-02-21T02:05:41.708Z,56.20
2019-02-21T02:08:11.309Z,57.00
2019-02-21T02:10:39.101Z,58.00
2019-02-21T02:13:06.809Z,57.80
2019-02-21T02:15:34.458Z,57.70
2019-02-21T02:18:04.056Z,57.80
2019-02-21T02:20:31.682Z,58.00
2019-02-21T02:22:59.440Z,58.20
2019-02-21T02:25:27.172Z,58.00
2019-02-21T02:27:56.733Z,58.00
2019-02-21T02:30:26.318Z,58.20
2019-02-21T02:32:53.948Z,58.70
2019-02-21T02:35:21.665Z,58.70
2019-02-21T02:37:51.188Z,59.00
2019-02-21T02:40:20.734Z,59.00
2019-02-21T02:42:48.748Z,59.10
2019-02-21T02:45:16.388Z,59.10
2019-02-21T02:47:44.046Z,59.20
2019-02-21T02:50:13.599Z,59.00
2019-02-21T02:52:42.248Z,59.60
2019-02-21T02:55:09.954Z,59.50
2019-02-21T02:57:38.085Z,59.00
2019-02-21T03:00:09.500Z,58.60
2019-02-21T03:02:37.293Z,58.60
2019-02-21T03:05:05.391Z,58.30
2019-02-21T03:07:33.140Z,57.60
2019-02-21T03:10:04.954Z,57.90
2019-02-21T03:12:32.694Z,58.30
2019-02-21T03:15:00.413Z,58.60
2019-02-21T03:17:28.119Z,58.40
2019-02-21T03:19:57.682Z,58.80
2019-02-21T03:22:25.470Z,58.60
2019-02-21T03:24:53.131Z,58.40
2019-02-21T03:27:20.801Z,58.40
2019-02-21T03:29:48.459Z,58.20
2019-02-21T03:32:18.029Z,58.40
2019-02-21T03:34:45.937Z,59.00
2019-02-21T03:37:13.609Z,60.10
2019-02-21T03:39:41.486Z,59.70
2019-02-21T03:42:11.100Z,60.30
2019-02-21T03:44:38.763Z,60.40
2019-02-21T03:47:06.561Z,60.30
2019-02-21T03:49:34.230Z,59.50
2019-02-21T03:52:04.906Z,59.50
2019-02-21T03:54:32.572Z,59.90
2019-02-21T03:57:00.269Z,60.20
2019-02-21T03:59:27.965Z,60.40
2019-02-21T04:02:05.399Z,60.50
2019-02-21T04:04:29.033Z,60.80
2019-02-21T04:06:56.757Z,60.90
2019-02-21T04:09:24.394Z,60.60
2019-02-21T04:11:52.181Z,60.90
2019-02-21T04:14:21.718Z,60.70
2019-02-21T04:16:49.415Z,61.10
2019-02-21T04:19:17.042Z,61.30
2019-02-21T04:21:44.736Z,61.30
2019-02-21T04:24:14.326Z,62.10
2019-02-21T04:26:41.968Z,61.60
2019-02-21T04:29:09.633Z,61.70
2019-02-21T04:31:37.293Z,61.70
2019-02-21T04:34:06.905Z,62.00
2019-02-21T04:36:34.587Z,62.10
2019-02-21T04:39:02.747Z,62.10
2019-02-21T04:41:32.349Z,62.90
2019-02-21T04:44:03.928Z,62.70
2019-02-21T04:46:31.993Z,63.00
2019-02-21T04:49:00.697Z,62.90
2019-02-21T04:51:28.408Z,62.50
2019-02-21T04:53:56.153Z,62.90
2019-02-21T04:56:25.711Z,62.90
2019-02-21T04:58:53.531Z,63.20
2019-02-21T05:01:21.185Z,63.00
2019-02-21T05:03:49.053Z,63.50
2019-02-21T05:06:18.609Z,63.30
2019-02-21T05:08:46.994Z,63.70
2019-02-21T05:11:14.736Z,63.50
2019-02-21T05:13:42.511Z,63.90
2019-02-21T05:16:12.109Z,63.80
2019-02-21T05:18:39.925Z,63.70
2019-02-21T05:21:07.575Z,63.70
2019-02-21T05:23:36.739Z,63.40
2019-02-21T05:26:07.704Z,63.00
2019-02-21T05:28:35.359Z,62.90
2019-02-21T05:31:07.238Z,62.90
2019-02-21T05:33:45.777Z,63.00
2019-02-21T05:36:50.304Z,63.30
2019-02-21T05:39:38.505Z,62.90
2019-02-21T05:42:26.656Z,62.90
2019-02-21T05:45:28.944Z,62.80
2019-02-21T05:48:22.841Z,63.10
2019-02-21T05:50:58.134Z,63.20
2019-02-21T05:53:31.161Z,63.60
2019-02-21T05:56:19.179Z,63.30
2019-02-21T05:59:06.465Z,63.10
2019-02-21T06:02:03.065Z,63.00
2019-02-21T06:04:56.051Z,62.70
2019-02-21T06:07:58.661Z,62.90
2019-02-21T06:10:52.610Z,63.00
2019-02-21T06:13:37.474Z,63.70
2019-02-21T06:16:25.166Z,62.80
2019-02-21T06:19:10.946Z,63.10
2019-02-21T06:21:53.774Z,63.40
2019-02-21T06:24:44.746Z,63.10
2019-02-21T06:27:34.749Z,62.90
2019-02-21T06:30:14.493Z,63.10
2019-02-21T06:32:42.141Z,63.20
2019-02-21T06:35:09.937Z,63.10
2019-02-21T06:37:37.936Z,64.00
2019-02-21T06:40:07.704Z,64.40
2019-02-21T06:42:35.406Z,64.60
2019-02-21T06:45:04.366Z,64.90
2019-02-21T06:47:32.025Z,65.20
2019-02-21T06:50:01.605Z,65.00
2019-02-21T06:52:29.322Z,64.20
2019-02-21T06:54:56.988Z,64.40
2019-02-21T06:57:25.104Z,64.30
2019-02-21T06:59:52.791Z,64.10
2019-02-21T07:02:22.367Z,64.50
2019-02-21T07:04:50.038Z,64.80
2019-02-21T07:07:17.789Z,65.00
2019-02-21T07:09:45.424Z,65.50
2019-02-21T07:12:15.069Z,65.40
2019-02-21T07:14:42.694Z,65.40
2019-02-21T07:17:10.350Z,65.50
2019-02-21T07:19:38.029Z,65.10
2019-02-21T07:22:07.741Z,64.10
2019-02-21T07:24:38.350Z,63.70
2019-02-21T07:27:05.446Z,63.90
2019-02-21T07:29:33.132Z,63.80
2019-02-21T07:32:02.980Z,64.40
2019-02-21T07:34:30.762Z,64.10
2019-02-21T07:36:58.412Z,64.10
2019-02-21T07:39:35.618Z,64.10
2019-02-21T07:41:55.860Z,63.80
2019-02-21T07:44:25.481Z,64.20
2019-02-21T07:46:53.491Z,64.40
2019-02-21T07:49:21.439Z,65.00
2019-02-21T07:51:49.081Z,65.10
2019-02-21T07:54:18.628Z,65.30
2019-02-21T07:56:46.319Z,64.80
2019-02-21T07:59:14.028Z,64.70
2019-02-21T08:01:41.661Z,64.20
2019-02-21T08:04:11.274Z,64.30
2019-02-21T08:06:39.004Z,63.40
2019-02-21T08:09:07.855Z,63.00
2019-02-21T08:11:35.498Z,62.80
2019-02-21T08:14:05.060Z,62.50
2019-02-21T08:16:33.381Z,61.70
2019-02-21T08:19:01.405Z,61.40
2019-02-21T08:21:29.091Z,61.00
2019-02-21T08:23:59.149Z,61.00
2019-02-21T08:26:28.261Z,60.40
2019-02-21T08:28:55.940Z,61.70
2019-02-21T08:31:23.605Z,61.50
2019-02-21T08:34:04.410Z,61.10
2019-02-21T08:36:32.430Z,62.50
2019-02-21T08:39:00.086Z,60.90
2019-02-21T08:41:28.157Z,60.70
2019-02-21T08:43:57.451Z,60.50
2019-02-21T08:46:27.168Z,60.10
2019-02-21T08:48:54.899Z,59.30
2019-02-21T08:51:22.511Z,58.20
2019-02-21T08:53:50.135Z,58.00
2019-02-21T08:56:19.686Z,57.90
2019-02-21T08:58:48.449Z,56.70
2019-02-21T09:01:16.154Z,57.00
2019-02-21T09:03:43.813Z,57.80
2019-02-21T09:06:13.513Z,58.20
2019-02-21T09:08:41.145Z,56.70
2019-02-21T09:11:08.837Z,57.30
2019-02-21T09:13:36.556Z,56.50
2019-02-21T09:16:06.120Z,55.30
2019-02-21T09:18:33.780Z,55.40
2019-02-21T09:21:02.294Z,55.50
2019-02-21T09:23:30.034Z,55.40
2019-02-21T09:26:01.102Z,55.80
2019-02-21T09:28:29.897Z,55.70
2019-02-21T09:30:57.529Z,56.90
2019-02-21T09:33:25.216Z,56.40
2019-02-21T09:35:52.951Z,57.30
2019-02-21T09:38:22.543Z,56.30
2019-02-21T09:40:50.211Z,55.60
2019-02-21T09:43:17.908Z,55.60
2019-02-21T09:45:45.575Z,56.00
2019-02-21T09:48:15.154Z,56.00
2019-02-21T09:50:43.916Z,55.10
2019-02-21T09:53:11.654Z,55.50
2019-02-21T09:55:39.348Z,55.80
2019-02-21T09:58:08.939Z,54.40
2019-02-21T10:00:36.609Z,54.50
2019-02-21T10:03:04.311Z,54.20
2019-02-21T10:05:31.997Z,52.90
2019-02-21T10:08:01.802Z,52.60
2019-02-21T10:10:30.033Z,52.80
2019-02-21T10:12:57.889Z,52.60
2019-02-21T10:15:25.597Z,52.10
2019-02-21T10:17:53.221Z,51.80
2019-02-21T10:20:22.885Z,53.10
2019-02-21T10:22:50.640Z,53.20
2019-02-21T10:25:22.946Z,52.30
2019-02-21T10:27:49.921Z,52.00
2019-02-21T10:30:20.034Z,50.60
2019-02-21T10:32:47.713Z,50.40
2019-02-21T10:35:15.342Z,50.30
2019-02-21T10:37:43.156Z,50.70
2019-02-21T10:40:13.115Z,50.60
2019-02-21T10:42:40.858Z,50.70
2019-02-21T10:45:11.031Z,49.80
2019-02-21T10:47:39.709Z,49.70
2019-02-21T10:50:13.973Z,49.60
2019-02-21T10:52:41.887Z,48.40
2019-02-21T10:55:09.937Z,48.20
2019-02-21T10:57:37.736Z,47.60
2019-02-21T11:00:13.097Z,47.30
2019-02-21T11:02:42.107Z,47.90
2019-02-21T11:05:09.908Z,48.80
2019-02-21T11:07:37.548Z,47.40
2019-02-21T11:10:07.652Z,46.60
2019-02-21T11:12:36.121Z,46.30
2019-02-21T11:15:06.477Z,47.40
2019-02-21T11:17:34.377Z,47.30
2019-02-21T11:20:04.929Z,47.70
2019-02-21T11:22:32.615Z,45.70
2019-02-21T11:25:00.733Z,44.90
2019-02-21T11:27:28.384Z,44.40
2019-02-21T11:29:56.045Z,44.40
2019-02-21T11:32:25.642Z,44.40
2019-02-21T11:34:53.399Z,45.10
2019-02-21T11:37:21.094Z,45.50
2019-02-21T11:39:48.756Z,46.10
2019-02-21T11:42:18.354Z,44.90
2019-02-21T11:44:45.977Z,45.30
2019-02-21T11:47:13.649Z,45.30
2019-02-21T11:49:41.349Z,45.80
2019-02-21T11:52:10.916Z,45.60
2019-02-21T11:54:38.585Z,46.20
2019-02-21T11:57:06.453Z,45.90
2019-02-21T11:59:34.117Z,46.00
2019-02-21T12:02:03.707Z,46.50
2019-02-21T12:04:31.344Z,47.20
2019-02-21T12:06:59.001Z,46.20
2019-02-21T12:09:26.706Z,44.70
2019-02-21T12:11:54.665Z,44.30
2019-02-21T12:14:24.272Z,45.40
2019-02-21T12:16:52.035Z,45.80
2019-02-21T12:19:19.736Z,45.90
2019-02-21T12:21:58.415Z,44.70
2019-02-21T12:24:20.081Z,45.30
2019-02-21T12:26:48.756Z,44.10
2019-02-21T12:29:16.377Z,44.00
2019-02-21T12:31:44.109Z,44.20
2019-02-21T12:34:13.641Z,45.50
2019-02-21T12:36:41.318Z,45.20
2019-02-21T12:39:08.967Z,44.30
2019-02-21T12:41:37.929Z,44.30
2019-02-21T12:44:07.590Z,44.20
2019-02-21T12:46:35.411Z,45.10
2019-02-21T12:49:03.218Z,44.20
2019-02-21T12:51:31.073Z,44.10
2019-02-21T12:53:58.686Z,44.90
2019-02-21T12:56:28.287Z,44.30
2019-02-21T12:58:55.976Z,44.10
2019-02-21T13:01:23.669Z,44.30
2019-02-21T13:03:51.368Z,44.20
2019-02-21T13:06:20.958Z,44.30
2019-02-21T13:08:48.636Z,44.40
2019-02-21T13:11:16.303Z,44.00
2019-02-21T13:13:43.970Z,43.60
2019-02-21T13:16:13.521Z,43.50
2019-02-21T13:18:41.249Z,43.30
2019-02-21T13:21:08.896Z,43.80
2019-02-21T13:23:36.662Z,43.40
2019-02-21T13:26:06.225Z,43.80
2019-02-21T13:28:34.910Z,43.50
2019-02-21T13:31:02.633Z,42.80
2019-02-21T13:33:30.289Z,41.80
2019-02-21T13:35:57.978Z,41.70
2019-02-21T13:38:27.825Z,40.60
2019-02-21T13:40:55.529Z,41.00
2019-02-21T13:43:23.282Z,40.20
2019-02-21T13:45:50.962Z,40.60
2019-02-21T13:48:20.519Z,40.90
2019-02-21T13:50:48.203Z,42.00
2019-02-21T13:53:15.844Z,41.50
2019-02-21T13:55:43.543Z,42.40
2019-02-21T13:58:13.097Z,42.60
2019-02-21T14:00:40.775Z,42.20
2019-02-21T14:03:08.514Z,42.60
2019-02-21T14:05:36.257Z,43.90
2019-02-21T14:08:05.797Z,42.90
2019-02-21T14:10:35.137Z,43.10
2019-02-21T14:13:02.898Z,42.00
2019-02-21T14:15:30.538Z,41.50
2019-02-21T14:17:58.331Z,42.00
2019-02-21T14:20:27.853Z,41.30
2019-02-21T14:22:55.594Z,41.30
2019-02-21T14:25:23.441Z,41.10
2019-02-21T14:27:51.109Z,41.30
2019-02-21T14:30:20.670Z,41.70
2019-02-21T14:32:48.469Z,41.60
2019-02-21T14:35:16.147Z,42.00
2019-02-21T14:37:43.940Z,41.60
2019-02-21T14:40:13.735Z,41.30
2019-02-21T14:42:41.534Z,41.30
2019-02-21T14:45:12.456Z,41.00
2019-02-21T14:47:40.500Z,41.80
2019-02-21T14:50:10.213Z,41.60
2019-02-21T14:52:37.907Z,41.70
2019-02-21T14:55:06.560Z,41.80
2019-02-21T14:57:40.889Z,42.20
2019-02-21T15:00:09.138Z,42.40
2019-02-21T15:02:36.890Z,41.60
2019-02-21T15:05:04.553Z,42.40
2019-02-21T15:07:32.354Z,42.10
2019-02-21T15:09:59.978Z,41.10
2019-02-21T15:12:29.689Z,42.00
2019-02-21T15:14:57.344Z,41.90
2019-02-21T15:17:25.034Z,41.60
2019-02-21T15:19:52.843Z,41.90
2019-02-21T15:22:22.514Z,41.90
2019-02-21T15:24:50.334Z,42.30
2019-02-21T15:27:18.101Z,42.50
2019-02-21T15:29:45.875Z,43.00
2019-02-21T15:32:15.544Z,43.30
2019-02-21T15:34:43.182Z,43.50
2019-02-21T15:37:11.073Z,43.50
2019-02-21T15:39:38.726Z,43.50
2019-02-21T15:42:08.274Z,43.90
2019-02-21T15:44:36.146Z,43.40
2019-02-21T15:47:03.906Z,43.50
2019-02-21T15:49:31.655Z,42.60
2019-02-21T15:51:59.289Z,42.80
2019-02-21T15:54:28.854Z,43.00
2019-02-21T15:56:56.527Z,42.50
2019-02-21T15:59:24.258Z,42.60
2019-02-21T16:01:51.949Z,42.90
2019-02-21T16:04:21.571Z,42.40
2019-02-21T16:06:51.761Z,43.10
2019-02-21T16:09:18.955Z,43.20
2019-02-21T16:11:48.541Z,43.80
2019-02-21T16:14:19.135Z,44.40
2019-02-21T16:16:48.813Z,44.30
2019-02-21T16:19:18.449Z,44.30
2019-02-21T16:21:48.287Z,45.10
2019-02-21T16:24:18.001Z,45.70
2019-02-21T16:26:47.554Z,44.80
2019-02-21T16:29:18.205Z,45.30
2019-02-21T16:31:47.936Z,45.80
2019-02-21T16:34:17.633Z,45.90
2019-02-21T16:36:47.221Z,44.80
2019-02-21T16:39:17.850Z,44.90
2019-02-21T16:41:47.441Z,44.90
2019-02-21T16:44:17.040Z,44.80
2019-02-21T16:47:06.079Z,45.10
2019-02-21T16:49:38.597Z,45.30
2019-02-21T16:52:08.130Z,45.60
2019-02-21T16:54:37.718Z,45.80
2019-02-21T16:57:23.668Z,45.50
2019-02-21T16:59:51.535Z,46.30
2019-02-21T17:02:19.234Z,46.30
2019-02-21T17:04:47.051Z,46.90
2019-02-21T17:07:20.238Z,47.30
2019-02-21T17:09:47.075Z,47.80
2019-02-21T17:12:14.750Z,47.30
2019-02-21T17:14:42.541Z,47.70
2019-02-21T17:17:10.610Z,48.20
2019-02-21T17:19:38.377Z,48.30
2019-02-21T17:22:06.172Z,48.70
2019-02-21T17:24:33.832Z,48.80
2019-02-21T17:27:01.556Z,48.90
2019-02-21T17:29:29.307Z,48.30
2019-02-21T17:31:56.997Z,48.10
2019-02-21T17:34:24.707Z,48.70
2019-02-21T17:36:52.373Z,48.90
2019-02-21T17:39:20.264Z,48.80
2019-02-21T17:41:48.096Z,48.90
2019-02-21T17:44:15.777Z,48.80
2019-02-21T17:46:43.601Z,48.70
2019-02-21T17:49:11.307Z,48.60
2019-02-21T17:51:39.141Z,48.60
2019-02-21T17:54:06.848Z,49.10
2019-02-21T17:56:34.517Z,49.50
2019-02-21T17:59:02.464Z,49.50
2019-02-21T18:01:30.260Z,49.10
2019-02-21T18:03:58.047Z,49.30
2019-02-21T18:06:25.881Z,49.10
2019-02-21T18:08:55.135Z,49.50
2019-02-21T18:11:23.032Z,49.60
2019-02-21T18:13:50.770Z,49.80
2019-02-21T18:16:18.436Z,49.90
2019-02-21T18:18:46.127Z,50.20
2019-02-21T18:21:13.916Z,50.30
2019-02-21T18:23:41.645Z,50.30
2019-02-21T18:26:17.370Z,50.20
2019-02-21T18:28:45.149Z,50.20
2019-02-21T18:31:19.103Z,50.10
2019-02-21T18:33:46.813Z,50.60
2019-02-21T18:36:14.544Z,50.80
2019-02-21T18:38:43.241Z,51.10
2019-02-21T18:41:11.186Z,51.10
2019-02-21T18:43:38.909Z,51.00
2019-02-21T18:46:06.582Z,50.50
2019-02-21T18:48:34.549Z,50.80
2019-02-21T18:51:02.234Z,50.80
2019-02-21T18:53:29.937Z,50.40
2019-02-21T18:55:57.642Z,50.40
2019-02-21T18:58:25.354Z,50.90
2019-02-21T19:00:53.046Z,51.70
2019-02-21T19:03:20.751Z,51.50
2019-02-21T19:05:48.441Z,51.20
2019-02-21T19:08:16.125Z,51.10
2019-02-21T19:10:43.806Z,51.50
2019-02-21T19:13:11.535Z,52.00
2019-02-21T19:15:39.326Z,53.10
2019-02-21T19:18:10.071Z,53.70
2019-02-21T19:20:38.157Z,53.80
2019-02-21T19:23:05.917Z,53.90
2019-02-21T19:25:33.910Z,54.40
2019-02-21T19:28:01.593Z,54.50
2019-02-21T19:30:33.086Z,54.30
2019-02-21T19:33:00.790Z,54.40
2019-02-21T19:35:28.460Z,54.60
2019-02-21T19:38:09.788Z,54.60
2019-02-21T19:40:29.299Z,55.10
2019-02-21T19:42:57.099Z,54.90
2019-02-21T19:45:24.898Z,54.80
2019-02-21T19:47:52.917Z,54.80
2019-02-21T19:50:20.724Z,55.20
2019-02-21T19:52:48.435Z,55.20
2019-02-21T19:55:16.264Z,55.50
2019-02-21T19:57:43.924Z,55.50
2019-02-21T20:00:13.648Z,55.50
2019-02-21T20:02:41.619Z,55.50
2019-02-21T20:05:09.492Z,56.20
2019-02-21T20:07:37.322Z,56.90
2019-02-21T20:10:05.121Z,58.10
2019-02-21T20:12:32.833Z,57.60
2019-02-21T20:15:01.329Z,58.30
2019-02-21T20:17:31.031Z,57.60
2019-02-21T20:19:58.769Z,57.50
2019-02-21T20:22:26.533Z,57.20
2019-02-21T20:24:54.194Z,57.30
2019-02-21T20:27:22.849Z,57.90
2019-02-21T20:29:50.626Z,57.40
2019-02-21T20:32:18.291Z,57.20
2019-02-21T20:34:46.097Z,57.70
2019-02-21T20:37:13.756Z,57.80
2019-02-21T20:39:43.774Z,58.00
2019-02-21T20:42:11.431Z,58.20
2019-02-21T20:44:39.214Z,57.80
2019-02-21T20:47:06.946Z,58.10
2019-02-21T20:49:36.685Z,57.70
2019-02-21T20:52:04.433Z,57.80
2019-02-21T20:54:32.098Z,57.80
2019-02-21T20:56:59.802Z,57.70
2019-02-21T20:59:28.197Z,58.00
2019-02-21T21:01:55.893Z,58.30
2019-02-21T21:04:23.610Z,58.50
2019-02-21T21:06:51.322Z,58.70
2019-02-21T21:09:18.993Z,58.20
2019-02-21T21:11:46.850Z,57.70
2019-02-21T21:14:14.494Z,57.70
2019-02-21T21:16:42.210Z,57.70
2019-02-21T21:19:09.893Z,58.00
2019-02-21T21:21:37.689Z,58.00
2019-02-21T21:24:05.368Z,57.70
2019-02-21T21:26:33.366Z,57.40
2019-02-21T21:29:01.230Z,57.50
2019-02-21T21:31:30.804Z,57.60
2019-02-21T21:33:58.488Z,57.70
2019-02-21T21:36:26.158Z,58.10
2019-02-21T21:38:54.488Z,58.00
2019-02-21T21:41:22.342Z,57.90
2019-02-21T21:43:49.989Z,58.10
2019-02-21T21:46:17.668Z,57.90
2019-02-21T21:48:45.381Z,58.00
2019-02-21T21:51:13.135Z,58.40
2019-02-21T21:53:40.805Z,58.30
2019-02-21T21:56:08.492Z,58.30
2019-02-21T21:58:36.217Z,58.30
2019-02-21T22:01:03.883Z,58.30
2019-02-21T22:03:33.542Z,58.30
2019-02-21T22:06:01.250Z,58.20
2019-02-21T22:08:28.938Z,58.20
2019-02-21T22:10:56.618Z,58.30
2019-02-21T22:13:24.290Z,58.30
2019-02-21T22:15:51.964Z,58.30
2019-02-21T22:18:19.734Z,58.30
2019-02-21T22:20:47.398Z,58.30
2019-02-21T22:23:15.197Z,58.30
2019-02-21T22:25:42.851Z,58.20
2019-02-21T22:28:10.537Z,58.30
2019-02-21T22:30:38.189Z,58.30
2019-02-21T22:33:05.912Z,59.10
2019-02-21T22:35:33.574Z,58.30
2019-02-21T22:38:01.253Z,57.60
2019-02-21T22:40:28.915Z,57.70
2019-02-21T22:42:56.740Z,57.70
2019-02-21T22:45:24.387Z,57.50
2019-02-21T22:47:52.013Z,57.50
2019-02-21T22:50:19.735Z,57.70
2019-02-21T22:52:47.439Z,57.40
2019-02-21T22:55:15.161Z,57.20
2019-02-21T22:57:42.837Z,57.20
2019-02-21T23:00:41.692Z,57.20
2019-02-21T23:03:11.265Z,57.30
2019-02-21T23:06:19.245Z,57.00
2019-02-21T23:08:53.325Z,57.00
2019-02-21T23:11:21.386Z,57.30
2019-02-21T23:13:49.112Z,56.90
2019-02-21T23:16:16.813Z,57.20
2019-02-21T23:18:44.785Z,57.80
2019-02-21T23:21:12.509Z,57.90
2019-02-21T23:23:40.322Z,58.40
2019-02-21T23:26:08.343Z,58.10
2019-02-21T23:28:36.017Z,58.40
2019-02-21T23:31:03.685Z,58.10
2019-02-21T23:33:33.016Z,58.50
2019-02-21T23:36:00.778Z,58.60
2019-02-21T23:38:28.453Z,58.60
2019-02-21T23:40:56.127Z,58.60
2019-02-21T23:43:23.893Z,58.30
2019-02-21T23:45:51.677Z,58.60
2019-02-21T23:48:19.364Z,58.40
2019-02-21T23:50:47.029Z,58.40
2019-02-21T23:53:15.009Z,58.20
2019-02-21T23:55:42.711Z,58.60
2019-02-21T23:58:10.424Z,58.10
